createdAt,value
2022-11-26T00:02:23.392Z,8.40
2022-11-26T00:04:51.796Z,8.40
2022-11-26T00:07:25.968Z,8.40
2022-11-26T00:10:00.294Z,8.40
2022-11-26T00:12:31.800Z,8.30
2022-11-26T00:15:18.362Z,8.30
2022-11-26T00:17:51.055Z,8.30
2022-11-26T00:20:22.270Z,8.30
2022-11-26T00:22:52.477Z,8.30
2022-11-26T00:25:33.054Z,8.20
2022-11-26T00:28:00.179Z,8.20
2022-11-26T00:30:30.604Z,8.20
2022-11-26T00:32:58.444Z,8.20
2022-11-26T00:35:25.694Z,8.20
2022-11-26T00:37:56.162Z,8.20
2022-11-26T00:40:31.160Z,8.20
2022-11-26T00:43:02.081Z,8.20
2022-11-26T00:45:31.124Z,8.20
2022-11-26T00:47:58.375Z,8.20
2022-11-26T00:50:31.269Z,8.20
2022-11-26T00:52:58.355Z,8.20
2022-11-26T00:55:32.978Z,8.20
2022-11-26T00:58:00.740Z,8.20
2022-11-26T01:00:32.713Z,8.20
2022-11-26T01:03:03.947Z,8.20
2022-11-26T01:05:33.699Z,8.10
2022-11-26T01:08:10.892Z,8.10
2022-11-26T01:10:38.034Z,8.10
2022-11-26T01:13:06.839Z,8.10
2022-11-26T01:15:33.934Z,8.10
2022-11-26T01:18:01.079Z,8.10
2022-11-26T01:20:30.751Z,8.10
2022-11-26T01:23:00.612Z,8.00
2022-11-26T01:25:27.917Z,8.00
2022-11-26T01:27:59.407Z,8.00
2022-11-26T01:30:35.777Z,8.00
2022-11-26T01:33:04.982Z,8.00
2022-11-26T01:35:34.403Z,8.00
2022-11-26T01:38:01.740Z,8.00
2022-11-26T01:40:40.679Z,8.00
2022-11-26T01:43:13.203Z,8.00
2022-11-26T01:45:42.769Z,7.90
2022-11-26T01:48:31.693Z,8.00
2022-11-26T01:51:05.042Z,8.00
2022-11-26T01:53:48.290Z,7.90
2022-11-26T01:56:37.257Z,7.90
2022-11-26T01:59:17.288Z,7.90
2022-11-26T02:01:46.519Z,7.90
2022-11-26T02:04:24.805Z,7.90
2022-11-26T02:06:55.667Z,7.80
2022-11-26T02:09:25.026Z,7.80
2022-11-26T02:11:55.371Z,7.80
2022-11-26T02:14:37.650Z,7.80
2022-11-26T02:17:35.368Z,7.80
2022-11-26T02:20:33.138Z,7.80
2022-11-26T02:23:28.386Z,7.80
2022-11-26T02:26:07.606Z,7.70
2022-11-26T02:29:04.586Z,7.70
2022-11-26T02:32:09.377Z,7.60
2022-11-26T02:34:58.146Z,7.70
2022-11-26T02:37:39.645Z,7.70
2022-11-26T02:40:11.617Z,7.70
2022-11-26T02:42:40.984Z,7.70
2022-11-26T02:45:16.260Z,7.70
2022-11-26T02:47:48.979Z,7.70
2022-11-26T02:50:26.419Z,7.70
2022-11-26T02:52:57.171Z,7.70
2022-11-26T02:55:30.151Z,7.70
2022-11-26T02:58:03.309Z,7.70
2022-11-26T03:00:35.635Z,7.70
2022-11-26T03:03:08.770Z,7.70
2022-11-26T03:05:41.310Z,7.70
2022-11-26T03:08:12.744Z,7.70
2022-11-26T03:10:39.909Z,7.70
2022-11-26T03:13:07.008Z,7.70
2022-11-26T03:15:36.491Z,7.70
2022-11-26T03:18:06.139Z,7.70
2022-11-26T03:20:35.773Z,7.70
2022-11-26T03:23:03.050Z,7.70
2022-11-26T03:25:30.179Z,7.70
2022-11-26T03:27:59.886Z,7.70
2022-11-26T03:30:27.132Z,7.70
2022-11-26T03:32:54.240Z,7.70
2022-11-26T03:35:26.314Z,7.70
2022-11-26T03:37:55.066Z,7.70
2022-11-26T03:40:28.990Z,7.70
2022-11-26T03:42:56.098Z,7.70
2022-11-26T03:45:28.036Z,7.70
2022-11-26T03:47:55.250Z,7.70
2022-11-26T03:50:22.493Z,7.60
2022-11-26T03:52:49.665Z,7.70
2022-11-26T03:55:16.930Z,7.60
2022-11-26T03:57:48.184Z,7.60
2022-11-26T04:00:20.445Z,7.60
2022-11-26T04:02:52.139Z,7.60
2022-11-26T04:05:21.596Z,7.70
2022-11-26T04:07:50.805Z,7.60
2022-11-26T04:10:18.050Z,7.60
2022-11-26T04:12:47.238Z,7.60
2022-11-26T04:15:16.587Z,7.60
2022-11-26T04:17:43.697Z,7.60
2022-11-26T04:20:11.119Z,7.60
2022-11-26T04:22:40.303Z,7.60
2022-11-26T04:25:08.041Z,7.60
2022-11-26T04:27:37.570Z,7.60
2022-11-26T04:30:06.641Z,7.60
2022-11-26T04:32:39.808Z,7.60
2022-11-26T04:35:08.504Z,7.60
2022-11-26T04:37:36.129Z,7.60
2022-11-26T04:40:05.955Z,7.60
2022-11-26T04:42:37.635Z,7.60
2022-11-26T04:45:08.012Z,7.60
2022-11-26T04:47:42.629Z,7.60
2022-11-26T04:50:10.870Z,7.50
2022-11-26T04:52:38.416Z,7.50
2022-11-26T04:55:08.328Z,7.60
2022-11-26T04:57:39.978Z,7.50
2022-11-26T05:00:12.117Z,7.50
2022-11-26T05:02:39.427Z,7.50
2022-11-26T05:05:09.151Z,7.50
2022-11-26T05:07:38.746Z,7.60
2022-11-26T05:10:07.391Z,7.50
2022-11-26T05:12:34.819Z,7.50
2022-11-26T05:15:05.516Z,7.50
2022-11-26T05:17:37.721Z,7.50
2022-11-26T05:20:07.896Z,7.50
2022-11-26T05:22:37.306Z,7.50
2022-11-26T05:25:06.888Z,7.50
2022-11-26T05:27:39.152Z,7.50
2022-11-26T05:30:07.432Z,7.50
2022-11-26T05:32:36.808Z,7.50
2022-11-26T05:35:06.615Z,7.40
2022-11-26T05:37:36.025Z,7.40
2022-11-26T05:40:03.597Z,7.40
2022-11-26T05:42:30.732Z,7.40
2022-11-26T05:44:59.954Z,7.40
2022-11-26T05:47:29.198Z,7.40
2022-11-26T05:49:56.404Z,7.40
2022-11-26T05:52:25.775Z,7.40
2022-11-26T05:54:52.911Z,7.40
2022-11-26T05:57:22.404Z,7.40
2022-11-26T05:59:49.536Z,7.40
2022-11-26T06:02:16.954Z,7.30
2022-11-26T06:04:46.672Z,7.40
2022-11-26T06:07:13.807Z,7.30
2022-11-26T06:09:41.255Z,7.40
2022-11-26T06:12:13.031Z,7.30
2022-11-26T06:14:43.575Z,7.30
2022-11-26T06:17:11.505Z,7.30
2022-11-26T06:19:39.324Z,7.30
2022-11-26T06:22:09.186Z,7.40
2022-11-26T06:24:43.108Z,7.30
2022-11-26T06:27:13.032Z,7.30
2022-11-26T06:29:42.164Z,7.30
2022-11-26T06:32:09.272Z,7.30
2022-11-26T06:34:38.788Z,7.30
2022-11-26T06:37:08.555Z,7.30
2022-11-26T06:39:42.749Z,7.30
2022-11-26T06:42:09.830Z,7.30
2022-11-26T06:44:43.687Z,7.30
2022-11-26T06:47:14.011Z,7.20
2022-11-26T06:49:45.913Z,7.20
2022-11-26T06:52:17.289Z,7.20
2022-11-26T06:54:49.446Z,7.20
2022-11-26T06:57:19.595Z,7.20
2022-11-26T06:59:49.110Z,7.20
2022-11-26T07:02:16.343Z,7.20
2022-11-26T07:04:45.624Z,7.20
2022-11-26T07:07:12.833Z,7.20
2022-11-26T07:09:42.622Z,7.20
2022-11-26T07:12:14.507Z,7.20
2022-11-26T07:14:43.065Z,7.20
2022-11-26T07:17:10.257Z,7.20
2022-11-26T07:19:39.620Z,7.20
2022-11-26T07:22:08.896Z,7.20
2022-11-26T07:24:38.395Z,7.20
2022-11-26T07:27:10.935Z,7.20
2022-11-26T07:29:42.730Z,7.10
2022-11-26T07:32:09.886Z,7.10
2022-11-26T07:34:37.395Z,7.10
2022-11-26T07:37:04.850Z,7.10
2022-11-26T07:39:32.157Z,7.10
2022-11-26T07:42:01.790Z,7.10
2022-11-26T07:44:28.891Z,7.10
2022-11-26T07:46:56.014Z,7.10
2022-11-26T07:49:23.192Z,7.10
2022-11-26T07:51:50.441Z,7.10
2022-11-26T07:54:19.592Z,7.10
2022-11-26T07:56:46.711Z,7.10
2022-11-26T07:59:15.937Z,7.10
2022-11-26T08:01:45.650Z,7.10
2022-11-26T08:04:14.900Z,7.20
2022-11-26T08:06:44.008Z,7.20
2022-11-26T08:09:18.174Z,7.20
2022-11-26T08:11:45.288Z,7.20
2022-11-26T08:14:13.396Z,7.30
2022-11-26T08:16:42.911Z,7.30
2022-11-26T08:19:16.028Z,7.30
2022-11-26T08:21:46.297Z,7.30
2022-11-26T08:24:16.115Z,7.40
2022-11-26T08:26:44.718Z,7.40
2022-11-26T08:29:13.331Z,7.50
2022-11-26T08:31:46.714Z,7.50
2022-11-26T08:34:19.413Z,7.50
2022-11-26T08:36:48.858Z,7.60
2022-11-26T08:39:20.024Z,7.60
2022-11-26T08:41:52.117Z,7.70
2022-11-26T08:44:22.112Z,7.80
2022-11-26T08:46:49.548Z,7.80
2022-11-26T08:49:18.821Z,7.90
2022-11-26T08:51:48.178Z,8.00
2022-11-26T08:54:15.347Z,8.00
2022-11-26T08:56:46.862Z,8.10
2022-11-26T08:59:17.492Z,8.20
2022-11-26T09:01:44.749Z,8.30
2022-11-26T09:04:11.881Z,8.40
2022-11-26T09:06:41.500Z,8.50
2022-11-26T09:09:17.316Z,8.50
2022-11-26T09:11:57.776Z,8.60
2022-11-26T09:14:32.301Z,8.70
2022-11-26T09:16:59.504Z,8.70
2022-11-26T09:19:30.068Z,8.80
2022-11-26T09:21:58.246Z,8.90
2022-11-26T09:24:27.746Z,8.90
2022-11-26T09:26:58.781Z,9.00
2022-11-26T09:29:29.992Z,9.00
2022-11-26T09:32:22.843Z,9.10
2022-11-26T09:34:52.789Z,9.20
2022-11-26T09:37:24.508Z,9.20
2022-11-26T09:39:54.096Z,9.30
2022-11-26T09:42:38.535Z,9.30
2022-11-26T09:45:26.407Z,9.40
2022-11-26T09:47:54.341Z,9.50
2022-11-26T09:50:21.703Z,9.50
2022-11-26T09:52:54.357Z,9.60
2022-11-26T09:55:43.456Z,9.60
2022-11-26T09:58:26.976Z,9.70
2022-11-26T10:01:00.160Z,9.70
2022-11-26T10:03:30.391Z,9.80
2022-11-26T10:06:04.089Z,9.80
2022-11-26T10:08:57.554Z,9.80
2022-11-26T10:11:39.768Z,9.90
2022-11-26T10:14:18.616Z,9.90
2022-11-26T10:17:07.787Z,10.00
2022-11-26T10:19:52.316Z,10.00
2022-11-26T10:22:28.894Z,10.10
2022-11-26T10:24:58.075Z,10.10
2022-11-26T10:27:30.840Z,10.10
2022-11-26T10:30:20.129Z,10.20
2022-11-26T10:32:51.420Z,10.30
2022-11-26T10:35:21.654Z,10.30
2022-11-26T10:37:51.324Z,10.30
2022-11-26T10:40:22.029Z,10.40
2022-11-26T10:43:10.292Z,10.50
2022-11-26T10:45:46.157Z,10.50
2022-11-26T10:48:35.576Z,10.60
2022-11-26T10:51:11.552Z,10.60
2022-11-26T10:53:52.445Z,10.70
2022-11-26T10:56:36.085Z,10.80
2022-11-26T10:59:22.498Z,10.80
2022-11-26T11:01:51.742Z,10.90
2022-11-26T11:04:43.557Z,11.00
2022-11-26T11:07:30.079Z,11.10
2022-11-26T11:10:09.277Z,11.10
2022-11-26T11:12:45.720Z,11.10
2022-11-26T11:15:25.154Z,11.20
2022-11-26T11:18:01.295Z,11.20
2022-11-26T11:20:36.813Z,11.30
2022-11-26T11:23:20.122Z,11.30
2022-11-26T11:26:03.157Z,11.30
2022-11-26T11:28:37.369Z,11.40
2022-11-26T11:31:12.307Z,11.40
2022-11-26T11:33:45.673Z,11.40
2022-11-26T11:36:15.907Z,11.50
2022-11-26T11:38:50.043Z,11.50
2022-11-26T11:41:39.214Z,11.50
2022-11-26T11:44:15.443Z,11.60
2022-11-26T11:46:42.476Z,11.60
2022-11-26T11:49:37.530Z,11.60
2022-11-26T11:52:12.726Z,11.70
2022-11-26T11:54:56.432Z,11.70
2022-11-26T11:57:44.688Z,11.70
2022-11-26T12:00:14.112Z,11.70
2022-11-26T12:02:46.993Z,11.80
2022-11-26T12:05:30.870Z,11.80
2022-11-26T12:08:11.244Z,11.80
2022-11-26T12:10:51.072Z,11.90
2022-11-26T12:13:22.059Z,11.90
2022-11-26T12:16:14.269Z,11.90
2022-11-26T12:18:56.074Z,12.00
2022-11-26T12:21:46.232Z,12.00
2022-11-26T12:24:13.380Z,12.10
2022-11-26T12:27:11.568Z,12.10
2022-11-26T12:29:47.817Z,12.10
2022-11-26T12:32:28.088Z,12.10
2022-11-26T12:35:07.846Z,12.20
2022-11-26T12:37:43.634Z,12.20
2022-11-26T12:40:33.123Z,12.20
2022-11-26T12:43:19.787Z,12.30
2022-11-26T12:46:00.312Z,12.30
2022-11-26T12:48:42.862Z,12.30
2022-11-26T12:51:18.641Z,12.30
2022-11-26T12:53:48.612Z,12.30
2022-11-26T12:56:24.014Z,12.30
2022-11-26T12:59:10.390Z,12.30
2022-11-26T13:01:37.615Z,12.30
2022-11-26T13:04:37.167Z,12.20
2022-11-26T13:07:21.807Z,12.30
2022-11-26T13:09:56.158Z,12.30
2022-11-26T13:12:51.996Z,12.30
2022-11-26T13:15:33.305Z,12.20
2022-11-26T13:18:01.258Z,12.20
2022-11-26T13:20:33.666Z,12.30
2022-11-26T13:23:15.522Z,12.30
2022-11-26T13:25:50.088Z,12.30
2022-11-26T13:28:39.875Z,12.30
2022-11-26T13:31:35.396Z,12.40
2022-11-26T13:34:35.492Z,12.40
2022-11-26T13:37:19.849Z,12.40
2022-11-26T13:40:17.474Z,12.50
2022-11-26T13:43:10.204Z,12.50
2022-11-26T13:46:01.701Z,12.50
2022-11-26T13:48:59.353Z,12.50
2022-11-26T13:51:34.764Z,12.60
2022-11-26T13:54:34.267Z,12.60
2022-11-26T13:57:24.846Z,12.50
2022-11-26T13:59:55.005Z,12.60
2022-11-26T14:02:34.739Z,12.60
2022-11-26T14:05:10.943Z,12.70
2022-11-26T14:07:46.206Z,12.70
2022-11-26T14:10:37.518Z,12.70
2022-11-26T14:13:04.849Z,12.70
2022-11-26T14:15:43.342Z,12.70
2022-11-26T14:18:15.360Z,12.70
2022-11-26T14:20:57.609Z,12.70
2022-11-26T14:23:44.866Z,12.80
2022-11-26T14:26:39.584Z,12.80
2022-11-26T14:29:29.321Z,12.80
2022-11-26T14:31:56.616Z,12.80
2022-11-26T14:34:40.525Z,12.80
2022-11-26T14:37:16.441Z,12.80
2022-11-26T14:39:43.569Z,12.80
2022-11-26T14:42:20.545Z,12.80
2022-11-26T14:45:18.525Z,12.80
2022-11-26T14:47:51.310Z,12.80
2022-11-26T14:50:24.288Z,12.80
2022-11-26T14:53:05.434Z,12.80
2022-11-26T14:55:34.417Z,12.80
2022-11-26T14:58:14.452Z,12.70
2022-11-26T15:00:41.847Z,12.70
2022-11-26T15:03:27.810Z,12.70
2022-11-26T15:05:59.738Z,12.70
2022-11-26T15:08:28.972Z,12.60
2022-11-26T15:11:08.239Z,12.60
2022-11-26T15:13:44.444Z,12.60
2022-11-26T15:16:50.029Z,12.60
2022-11-26T15:19:21.322Z,12.50
2022-11-26T15:21:52.058Z,12.50
2022-11-26T15:24:21.423Z,12.50
2022-11-26T15:26:48.636Z,12.40
2022-11-26T15:29:31.029Z,12.40
2022-11-26T15:32:01.534Z,12.40
2022-11-26T15:34:32.393Z,12.30
2022-11-26T15:37:03.850Z,12.30
2022-11-26T15:39:33.543Z,12.20
2022-11-26T15:42:26.157Z,12.20
2022-11-26T15:44:53.381Z,12.10
2022-11-26T15:47:24.010Z,12.10
2022-11-26T15:49:55.961Z,12.00
2022-11-26T15:52:27.392Z,12.00
2022-11-26T15:55:14.367Z,11.90
2022-11-26T15:57:50.981Z,11.90
2022-11-26T16:00:36.143Z,11.90
2022-11-26T16:03:04.902Z,11.80
2022-11-26T16:05:41.863Z,11.70
2022-11-26T16:08:30.443Z,11.70
2022-11-26T16:11:09.108Z,11.70
2022-11-26T16:13:38.245Z,11.60
2022-11-26T16:16:20.486Z,11.60
2022-11-26T16:19:00.231Z,11.60
2022-11-26T16:21:30.847Z,11.50
2022-11-26T16:23:59.032Z,11.50
2022-11-26T16:26:27.548Z,11.40
2022-11-26T16:28:57.615Z,11.40
2022-11-26T16:31:26.900Z,11.30
2022-11-26T16:33:56.697Z,11.30
2022-11-26T16:36:27.651Z,11.30
2022-11-26T16:38:57.082Z,11.20
2022-11-26T16:41:24.405Z,11.20
2022-11-26T16:43:51.797Z,11.20
2022-11-26T16:46:23.691Z,11.10
2022-11-26T16:48:51.634Z,11.10
2022-11-26T16:51:18.900Z,11.10
2022-11-26T16:53:46.153Z,11.10
2022-11-26T16:56:22.249Z,11.00
2022-11-26T16:58:50.335Z,11.00
2022-11-26T17:01:20.396Z,10.90
2022-11-26T17:03:49.897Z,10.90
2022-11-26T17:06:27.579Z,10.90
2022-11-26T17:09:00.930Z,10.80
2022-11-26T17:11:30.176Z,10.80
2022-11-26T17:13:57.412Z,10.70
2022-11-26T17:16:27.106Z,10.70
2022-11-26T17:18:54.256Z,10.70
2022-11-26T17:21:23.462Z,10.60
2022-11-26T17:23:50.563Z,10.60
2022-11-26T17:26:25.360Z,10.60
2022-11-26T17:28:52.522Z,10.60
2022-11-26T17:31:19.770Z,10.50
2022-11-26T17:33:46.932Z,10.50
2022-11-26T17:36:22.174Z,10.50
2022-11-26T17:38:49.734Z,10.40
2022-11-26T17:41:17.418Z,10.40
2022-11-26T17:43:44.765Z,10.40
2022-11-26T17:46:22.102Z,10.30
2022-11-26T17:48:56.941Z,10.30
2022-11-26T17:51:26.764Z,10.30
2022-11-26T17:53:53.837Z,10.30
2022-11-26T17:56:23.880Z,10.20
2022-11-26T17:58:51.278Z,10.20
2022-11-26T18:01:21.755Z,10.20
2022-11-26T18:03:53.977Z,10.20
2022-11-26T18:06:45.077Z,10.10
2022-11-26T18:09:12.270Z,10.10
2022-11-26T18:11:49.897Z,10.10
2022-11-26T18:14:20.062Z,10.00
2022-11-26T18:16:49.887Z,10.00
2022-11-26T18:19:18.804Z,10.00
2022-11-26T18:21:49.397Z,9.90
2022-11-26T18:24:18.632Z,9.90
2022-11-26T18:26:48.106Z,9.90
2022-11-26T18:29:20.081Z,9.90
2022-11-26T18:31:52.066Z,9.80
2022-11-26T18:34:19.407Z,9.80
2022-11-26T18:36:53.870Z,9.80
2022-11-26T18:39:23.929Z,9.80
2022-11-26T18:42:15.396Z,9.80
2022-11-26T18:44:43.023Z,9.70
2022-11-26T18:47:10.345Z,9.70
2022-11-26T18:49:37.978Z,9.70
2022-11-26T18:52:09.912Z,9.70
2022-11-26T18:54:36.999Z,9.70
2022-11-26T18:57:06.303Z,9.70
2022-11-26T18:59:35.588Z,9.70
2022-11-26T19:02:08.545Z,9.70
2022-11-26T19:04:35.751Z,9.70
2022-11-26T19:07:02.857Z,9.70
2022-11-26T19:09:34.501Z,9.60
2022-11-26T19:12:04.262Z,9.70
2022-11-26T19:14:31.359Z,9.70
2022-11-26T19:17:03.925Z,9.60
2022-11-26T19:19:33.452Z,9.60
2022-11-26T19:22:10.065Z,9.60
2022-11-26T19:24:41.651Z,9.60
2022-11-26T19:27:13.476Z,9.60
2022-11-26T19:29:40.817Z,9.60
2022-11-26T19:32:08.137Z,9.60
2022-11-26T19:34:37.673Z,9.60
2022-11-26T19:37:04.814Z,9.60
2022-11-26T19:39:32.353Z,9.60
2022-11-26T19:42:00.075Z,9.60
2022-11-26T19:44:29.318Z,9.60
2022-11-26T19:46:58.736Z,9.70
2022-11-26T19:49:28.144Z,9.70
2022-11-26T19:51:58.128Z,9.70
2022-11-26T19:54:28.322Z,9.70
2022-11-26T19:56:55.500Z,9.70
2022-11-26T19:59:22.628Z,9.70
2022-11-26T20:01:55.823Z,9.70
2022-11-26T20:04:27.607Z,9.70
2022-11-26T20:06:55.165Z,9.70
2022-11-26T20:09:24.572Z,9.70
2022-11-26T20:11:55.931Z,9.70
2022-11-26T20:14:25.293Z,9.80
2022-11-26T20:16:59.427Z,9.80
2022-11-26T20:19:28.136Z,9.80
2022-11-26T20:21:57.592Z,9.80
2022-11-26T20:24:26.943Z,9.80
2022-11-26T20:26:56.349Z,9.80
2022-11-26T20:29:23.877Z,9.80
2022-11-26T20:31:54.671Z,9.80
2022-11-26T20:34:29.989Z,9.80
2022-11-26T20:36:59.321Z,9.80
2022-11-26T20:39:26.666Z,9.80
2022-11-26T20:41:58.412Z,9.80
2022-11-26T20:44:28.762Z,9.90
2022-11-26T20:46:57.018Z,9.90
2022-11-26T20:49:24.138Z,9.90
2022-11-26T20:51:53.787Z,9.90
2022-11-26T20:54:23.269Z,9.90
2022-11-26T20:56:50.467Z,9.90
2022-11-26T20:59:17.587Z,9.90
2022-11-26T21:01:46.855Z,9.90
2022-11-26T21:04:16.292Z,9.90
2022-11-26T21:06:44.176Z,9.90
2022-11-26T21:09:13.300Z,9.90
2022-11-26T21:11:42.684Z,9.90
2022-11-26T21:14:14.767Z,9.90
2022-11-26T21:16:42.515Z,9.90
2022-11-26T21:19:12.183Z,9.90
2022-11-26T21:21:39.260Z,9.90
2022-11-26T21:24:09.329Z,9.90
2022-11-26T21:26:37.481Z,9.90
2022-11-26T21:29:04.739Z,9.90
2022-11-26T21:31:32.123Z,9.90
2022-11-26T21:34:06.187Z,9.90
2022-11-26T21:36:34.854Z,9.90
2022-11-26T21:39:05.718Z,9.90
2022-11-26T21:41:33.765Z,9.90
2022-11-26T21:44:04.001Z,9.90
2022-11-26T21:46:38.922Z,9.90
2022-11-26T21:49:07.531Z,9.90
2022-11-26T21:51:34.772Z,9.90
2022-11-26T21:54:06.887Z,9.90
2022-11-26T21:56:37.045Z,9.90
2022-11-26T21:59:04.228Z,9.80
2022-11-26T22:01:36.137Z,9.90
2022-11-26T22:04:21.810Z,9.90
2022-11-26T22:06:49.773Z,9.90
2022-11-26T22:09:19.435Z,9.90
2022-11-26T22:11:46.933Z,9.90
2022-11-26T22:14:17.748Z,9.90
2022-11-26T22:16:51.229Z,9.90
2022-11-26T22:19:20.276Z,9.80
2022-11-26T22:21:47.408Z,9.90
2022-11-26T22:24:17.156Z,9.90
2022-11-26T22:26:47.312Z,9.90
2022-11-26T22:29:15.726Z,9.90
2022-11-26T22:31:45.315Z,9.90
2022-11-26T22:34:18.154Z,9.90
2022-11-26T22:36:47.625Z,9.80
2022-11-26T22:39:20.372Z,9.80
2022-11-26T22:41:48.624Z,9.80
2022-11-26T22:44:18.564Z,9.80
2022-11-26T22:46:47.870Z,9.80
2022-11-26T22:49:18.991Z,9.80
2022-11-26T22:51:47.494Z,9.80
2022-11-26T22:54:18.689Z,9.70
2022-11-26T22:56:45.905Z,9.70
2022-11-26T22:59:17.818Z,9.70
2022-11-26T23:01:45.008Z,9.70
2022-11-26T23:04:14.696Z,9.70
2022-11-26T23:07:00.074Z,9.70
2022-11-26T23:09:29.801Z,9.70
2022-11-26T23:11:59.009Z,9.70
2022-11-26T23:14:26.164Z,9.60
2022-11-26T23:16:53.281Z,9.60
2022-11-26T23:19:20.468Z,9.60
2022-11-26T23:21:49.936Z,9.60
2022-11-26T23:24:19.862Z,9.60
2022-11-26T23:26:49.073Z,9.60
2022-11-26T23:29:16.208Z,9.60
2022-11-26T23:31:44.261Z,9.60
2022-11-26T23:34:14.373Z,9.60
2022-11-26T23:36:41.466Z,9.60
2022-11-26T23:39:13.210Z,9.60
2022-11-26T23:41:44.731Z,9.60
2022-11-26T23:44:14.458Z,9.60
2022-11-26T23:46:41.735Z,9.60
2022-11-26T23:49:08.957Z,9.60
2022-11-26T23:51:38.288Z,9.60
2022-11-26T23:54:05.484Z,9.60
2022-11-26T23:56:34.813Z,9.50
2022-11-26T23:59:06.217Z,9.50
